createdAt,value
2022-08-08T00:00:52.966Z,0.00
2022-08-08T00:00:56.316Z,0.00
2022-08-08T00:02:03.134Z,0.00
2022-08-08T00:02:45.125Z,0.00
2022-08-08T00:03:43.813Z,0.00
2022-08-08T00:04:49.162Z,0.00
2022-08-08T00:06:03.447Z,0.00
2022-08-08T00:06:44.771Z,0.00
2022-08-08T00:07:43.737Z,0.00
2022-08-08T00:08:49.221Z,0.00
2022-08-08T00:09:44.721Z,0.00
2022-08-08T00:10:45.357Z,0.00
2022-08-08T00:11:46.931Z,0.00
2022-08-08T00:12:48.432Z,0.00
2022-08-08T00:14:14.815Z,0.00
2022-08-08T00:14:56.894Z,0.00
2022-08-08T00:15:56.858Z,0.00
2022-08-08T00:16:44.700Z,0.00
2022-08-08T00:18:02.577Z,0.00
2022-08-08T00:18:44.690Z,0.00
2022-08-08T00:19:46.706Z,0.00
2022-08-08T00:20:44.703Z,0.00
2022-08-08T00:21:44.135Z,0.00
2022-08-08T00:22:43.631Z,0.00
2022-08-08T00:23:47.641Z,0.00
2022-08-08T00:24:45.610Z,0.00
2022-08-08T00:25:46.720Z,0.00
2022-08-08T00:26:44.619Z,0.00
2022-08-08T00:27:43.593Z,0.00
2022-08-08T00:28:44.248Z,0.00
2022-08-08T00:29:45.339Z,0.00
2022-08-08T00:30:45.225Z,0.00
2022-08-08T00:32:15.011Z,0.00
2022-08-08T00:32:45.207Z,0.00
2022-08-08T00:34:18.254Z,0.00
2022-08-08T00:34:45.169Z,0.00
2022-08-08T00:35:43.506Z,0.00
2022-08-08T00:36:45.536Z,0.00
2022-08-08T00:37:48.193Z,0.00
2022-08-08T00:38:55.923Z,0.00
2022-08-08T00:41:10.275Z,0.00
2022-08-08T00:41:12.144Z,0.00
2022-08-08T00:41:45.276Z,0.00
2022-08-08T00:42:44.563Z,0.00
2022-08-08T00:43:45.889Z,0.00
2022-08-08T00:44:44.103Z,0.00
2022-08-08T00:45:43.435Z,0.00
2022-08-08T00:46:57.370Z,0.00
2022-08-08T00:48:05.464Z,0.00
2022-08-08T00:48:59.035Z,0.00
2022-08-08T00:49:58.443Z,0.00
2022-08-08T00:50:48.250Z,0.00
2022-08-08T00:51:44.425Z,0.00
2022-08-08T00:52:48.780Z,0.00
2022-08-08T00:54:04.515Z,0.00
2022-08-08T00:54:45.746Z,0.00
2022-08-08T00:55:53.766Z,0.00
2022-08-08T00:56:44.832Z,0.00
2022-08-08T00:57:43.342Z,0.00
2022-08-08T00:58:54.171Z,0.00
2022-08-08T00:59:46.444Z,0.00
2022-08-08T01:00:43.417Z,0.00
2022-08-08T01:01:44.402Z,0.00
2022-08-08T01:03:58.733Z,0.00
2022-08-08T01:04:02.348Z,0.00
2022-08-08T01:04:44.287Z,0.00
2022-08-08T01:05:59.156Z,0.00
2022-08-08T01:06:44.299Z,0.00
2022-08-08T01:07:55.724Z,0.00
2022-08-08T01:08:50.245Z,0.00
2022-08-08T01:09:48.708Z,0.00
2022-08-08T01:10:43.246Z,0.00
2022-08-08T01:11:43.262Z,0.00
2022-08-08T01:12:44.226Z,0.00
2022-08-08T01:13:44.487Z,0.00
2022-08-08T01:14:53.748Z,0.00
2022-08-08T01:15:53.199Z,0.00
2022-08-08T01:16:44.218Z,0.00
2022-08-08T01:17:53.852Z,0.00
2022-08-08T01:18:53.593Z,0.00
2022-08-08T01:20:01.531Z,0.00
2022-08-08T01:20:44.769Z,0.00
2022-08-08T01:22:10.091Z,0.00
2022-08-08T01:22:44.148Z,0.00
2022-08-08T01:24:05.930Z,0.00
2022-08-08T01:24:44.129Z,0.00
2022-08-08T01:25:44.124Z,0.00
2022-08-08T01:26:49.114Z,0.00
2022-08-08T01:27:46.224Z,0.00
2022-08-08T01:28:43.100Z,0.00
2022-08-08T01:29:58.709Z,0.00
2022-08-08T01:30:45.766Z,0.00
2022-08-08T01:32:13.237Z,0.00
2022-08-08T01:32:44.068Z,0.00
2022-08-08T01:34:00.070Z,0.00
2022-08-08T01:34:44.052Z,0.00
2022-08-08T01:35:43.050Z,0.00
2022-08-08T01:36:43.032Z,0.00
2022-08-08T01:37:58.154Z,0.00
2022-08-08T01:38:44.028Z,0.00
2022-08-08T01:39:43.082Z,0.00
2022-08-08T01:40:43.015Z,0.00
2022-08-08T01:41:43.794Z,0.00
2022-08-08T01:42:43.023Z,0.00
2022-08-08T01:43:42.982Z,0.00
2022-08-08T01:44:43.986Z,0.00
2022-08-08T01:45:43.972Z,0.00
2022-08-08T01:46:43.962Z,0.00
2022-08-08T01:48:14.277Z,0.00
2022-08-08T01:48:46.275Z,0.00
2022-08-08T01:49:42.947Z,0.00
2022-08-08T01:50:42.989Z,0.00
2022-08-08T01:52:32.543Z,0.00
2022-08-08T01:54:00.888Z,0.00
2022-08-08T01:55:15.792Z,0.00
2022-08-08T01:55:26.313Z,0.00
2022-08-08T01:56:26.894Z,0.00
2022-08-08T01:56:46.910Z,0.00
2022-08-08T01:58:11.921Z,0.00
2022-08-08T01:58:47.250Z,0.00
2022-08-08T02:00:02.462Z,0.00
2022-08-08T02:00:43.902Z,0.00
2022-08-08T02:02:00.293Z,0.00
2022-08-08T02:02:44.192Z,0.00
2022-08-08T02:03:57.552Z,0.00
2022-08-08T02:04:43.830Z,0.00
2022-08-08T02:05:56.185Z,0.00
2022-08-08T02:06:43.851Z,0.00
2022-08-08T02:07:48.792Z,0.00
2022-08-08T02:08:45.584Z,0.00
2022-08-08T02:10:03.324Z,0.00
2022-08-08T02:10:45.020Z,0.00
2022-08-08T02:11:52.886Z,0.00
2022-08-08T02:12:43.792Z,0.00
2022-08-08T02:13:52.325Z,0.00
2022-08-08T02:14:55.240Z,0.00
2022-08-08T02:15:43.741Z,0.00
2022-08-08T02:16:42.941Z,0.00
2022-08-08T02:17:43.591Z,0.00
2022-08-08T02:18:42.715Z,0.00
2022-08-08T02:20:07.847Z,0.00
2022-08-08T02:21:00.752Z,0.00
2022-08-08T02:21:43.697Z,0.00
2022-08-08T02:22:52.690Z,0.00
2022-08-08T02:23:43.683Z,0.00
2022-08-08T02:24:44.342Z,0.00
2022-08-08T02:25:47.306Z,0.00
2022-08-08T02:26:43.655Z,0.00
2022-08-08T02:27:43.905Z,0.00
2022-08-08T02:28:42.643Z,0.00
2022-08-08T02:29:51.696Z,0.00
2022-08-08T02:30:50.070Z,0.00
2022-08-08T02:31:59.506Z,0.00
2022-08-08T02:32:43.639Z,0.00
2022-08-08T02:34:08.326Z,0.00
2022-08-08T02:35:10.935Z,0.00
2022-08-08T02:36:03.869Z,0.00
2022-08-08T02:36:43.576Z,0.00
2022-08-08T02:37:53.390Z,0.00
2022-08-08T02:38:44.821Z,0.00
2022-08-08T02:39:58.326Z,0.00
2022-08-08T02:40:45.216Z,0.00
2022-08-08T02:41:59.030Z,0.00
2022-08-08T02:42:43.557Z,0.00
2022-08-08T02:44:38.197Z,0.00
2022-08-08T02:44:56.735Z,0.00
2022-08-08T02:45:53.971Z,0.00
2022-08-08T02:46:43.940Z,0.00
2022-08-08T02:47:46.983Z,0.00
2022-08-08T02:48:45.308Z,0.00
2022-08-08T02:49:50.768Z,0.00
2022-08-08T02:50:47.253Z,0.00
2022-08-08T02:51:55.606Z,0.00
2022-08-08T02:52:43.610Z,0.00
2022-08-08T02:53:43.441Z,0.00
2022-08-08T02:54:42.438Z,0.00
2022-08-08T02:55:42.430Z,0.00
2022-08-08T02:56:42.425Z,0.00
2022-08-08T02:57:44.872Z,0.00
2022-08-08T02:58:42.437Z,0.00
2022-08-08T02:59:57.868Z,0.00
2022-08-08T03:00:50.568Z,0.00
2022-08-08T03:01:50.172Z,0.00
2022-08-08T03:02:43.375Z,0.00
2022-08-08T03:05:00.723Z,0.00
2022-08-08T03:05:04.488Z,0.00
2022-08-08T03:05:45.365Z,0.00
2022-08-08T03:06:42.346Z,0.00
2022-08-08T03:07:58.324Z,0.00
2022-08-08T03:08:44.328Z,0.00
2022-08-08T03:09:43.323Z,0.00
2022-08-08T03:10:44.682Z,0.00
2022-08-08T03:12:01.953Z,0.00
2022-08-08T03:13:02.081Z,0.00
2022-08-08T03:15:57.395Z,0.00
2022-08-08T03:15:57.766Z,0.00
2022-08-08T03:15:59.846Z,0.00
2022-08-08T03:16:43.529Z,0.00
2022-08-08T03:17:43.281Z,0.00
2022-08-08T03:18:43.250Z,0.00
2022-08-08T03:19:50.719Z,0.00
2022-08-08T03:20:43.237Z,0.00
2022-08-08T03:21:58.884Z,0.00
2022-08-08T03:22:43.259Z,0.00
2022-08-08T03:23:59.303Z,0.00
2022-08-08T03:24:43.202Z,0.00
2022-08-08T03:25:42.198Z,0.00
2022-08-08T03:26:43.092Z,0.00
2022-08-08T03:27:42.288Z,0.00
2022-08-08T03:28:42.204Z,0.00
2022-08-08T03:29:55.190Z,0.00
2022-08-08T03:30:43.155Z,0.00
2022-08-08T03:32:05.828Z,0.00
2022-08-08T03:32:53.330Z,0.00
2022-08-08T03:34:00.274Z,0.00
2022-08-08T03:34:43.123Z,0.00
2022-08-08T03:35:42.116Z,0.00
2022-08-08T03:36:42.108Z,0.00
2022-08-08T03:38:52.944Z,5.62
2022-08-08T03:38:58.136Z,5.62
2022-08-08T03:39:51.706Z,5.62
2022-08-08T03:40:43.138Z,5.62
2022-08-08T03:42:27.761Z,5.62
2022-08-08T03:42:47.531Z,5.62
2022-08-08T03:43:42.073Z,5.62
2022-08-08T03:44:47.829Z,11.25
2022-08-08T03:46:05.322Z,11.25
2022-08-08T03:46:43.029Z,11.25
2022-08-08T03:47:46.015Z,11.25
2022-08-08T03:49:30.995Z,11.25
2022-08-08T03:49:59.720Z,16.88
2022-08-08T03:50:43.000Z,16.88
2022-08-08T03:51:51.586Z,16.88
2022-08-08T03:52:44.493Z,22.50
2022-08-08T03:53:47.384Z,22.50
2022-08-08T03:55:02.583Z,22.50
2022-08-08T03:55:57.189Z,28.12
2022-08-08T03:56:42.953Z,28.12
2022-08-08T03:58:35.689Z,28.12
2022-08-08T03:58:47.933Z,33.75
2022-08-08T04:00:02.558Z,33.75
2022-08-08T04:01:01.446Z,39.38
2022-08-08T04:02:13.174Z,39.38
2022-08-08T04:02:47.429Z,45.00
2022-08-08T04:03:59.154Z,50.62
2022-08-08T04:04:42.965Z,50.62
2022-08-08T04:05:47.291Z,56.25
2022-08-08T04:06:42.869Z,56.25
2022-08-08T04:07:41.870Z,61.88
2022-08-08T04:08:41.880Z,67.50
2022-08-08T04:09:58.972Z,67.50
2022-08-08T04:10:42.844Z,73.12
2022-08-08T04:11:59.221Z,78.75
2022-08-08T04:12:42.831Z,84.38
2022-08-08T04:14:03.581Z,90.00
2022-08-08T04:14:45.253Z,196.88
2022-08-08T04:15:54.817Z,388.12
2022-08-08T04:16:42.800Z,478.12
2022-08-08T04:17:46.084Z,511.88
2022-08-08T04:18:44.815Z,579.38
2022-08-08T04:19:42.777Z,630.00
2022-08-08T04:20:41.764Z,663.75
2022-08-08T04:21:45.616Z,691.88
2022-08-08T04:22:41.757Z,725.62
2022-08-08T04:24:18.856Z,753.75
2022-08-08T04:24:42.739Z,765.00
2022-08-08T04:25:42.736Z,826.88
2022-08-08T04:26:58.044Z,905.62
2022-08-08T04:28:03.054Z,967.50
2022-08-08T04:28:42.735Z,990.00
2022-08-08T04:29:55.066Z,1018.12
2022-08-08T04:30:44.263Z,1063.12
2022-08-08T04:31:59.473Z,1119.38
2022-08-08T04:32:42.968Z,1170.00
2022-08-08T04:33:42.696Z,1243.12
2022-08-08T04:34:49.211Z,1288.12
2022-08-08T04:35:51.089Z,1350.00
2022-08-08T04:36:42.643Z,1372.50
2022-08-08T04:37:41.633Z,1400.62
2022-08-08T04:38:42.744Z,1445.62
2022-08-08T04:40:03.404Z,1473.75
2022-08-08T04:40:42.642Z,1513.12
2022-08-08T04:41:42.601Z,1580.62
2022-08-08T04:42:46.517Z,1659.38
2022-08-08T04:43:46.289Z,1636.88
2022-08-08T04:44:42.577Z,1665.00
2022-08-08T04:45:42.577Z,1721.25
2022-08-08T04:46:41.564Z,1755.00
2022-08-08T04:47:46.466Z,1800.00
2022-08-08T04:48:42.632Z,1861.88
2022-08-08T04:50:00.518Z,1912.50
2022-08-08T04:50:45.984Z,1918.12
2022-08-08T04:51:54.980Z,1929.38
2022-08-08T04:52:42.518Z,1912.50
2022-08-08T04:54:30.294Z,1929.38
2022-08-08T04:54:42.720Z,1996.88
2022-08-08T04:55:55.467Z,2098.12
2022-08-08T04:56:42.492Z,2143.12
2022-08-08T04:57:41.482Z,2199.38
2022-08-08T04:58:41.483Z,2227.50
2022-08-08T04:59:41.949Z,2261.25
2022-08-08T05:00:41.464Z,2340.00
2022-08-08T05:01:48.254Z,2385.00
2022-08-08T05:02:42.559Z,2368.12
2022-08-08T05:04:07.356Z,2441.25
2022-08-08T05:04:44.337Z,2486.25
2022-08-08T05:05:44.426Z,2469.38
2022-08-08T05:06:41.418Z,2480.62
2022-08-08T05:07:42.631Z,2542.50
2022-08-08T05:08:41.399Z,2542.50
2022-08-08T05:09:41.415Z,2553.75
2022-08-08T05:10:41.390Z,2576.25
2022-08-08T05:11:41.379Z,2587.50
2022-08-08T05:12:53.515Z,2610.00
2022-08-08T05:13:58.605Z,2604.38
2022-08-08T05:14:42.380Z,2649.38
2022-08-08T05:16:47.741Z,2581.88
2022-08-08T05:16:51.794Z,2581.88
2022-08-08T05:17:54.500Z,2435.62
2022-08-08T05:18:42.331Z,1665.00
2022-08-08T05:20:11.230Z,1636.88
2022-08-08T05:20:48.412Z,2356.88
2022-08-08T05:21:57.859Z,2728.12
2022-08-08T05:22:42.301Z,2756.25
2022-08-08T05:23:46.024Z,2784.38
2022-08-08T05:24:41.311Z,2621.25
2022-08-08T05:25:42.272Z,2683.12
2022-08-08T05:26:41.266Z,2902.50
2022-08-08T05:27:44.366Z,2880.00
2022-08-08T05:28:55.779Z,2846.25
2022-08-08T05:29:42.271Z,2874.38
2022-08-08T05:30:41.241Z,2925.00
2022-08-08T05:32:03.246Z,2925.00
2022-08-08T05:32:42.883Z,2902.50
2022-08-08T05:33:48.278Z,2908.12
2022-08-08T05:34:42.238Z,2998.12
2022-08-08T05:35:41.199Z,3026.25
2022-08-08T05:36:41.194Z,3015.00
2022-08-08T05:37:52.658Z,2964.38
2022-08-08T05:38:42.218Z,2936.25
2022-08-08T05:39:41.267Z,3020.62
2022-08-08T05:40:41.175Z,3088.12
2022-08-08T05:41:54.799Z,3009.38
2022-08-08T05:42:42.154Z,2986.88
2022-08-08T05:44:03.398Z,2998.12
2022-08-08T05:44:42.172Z,3026.25
2022-08-08T05:45:41.609Z,3099.38
2022-08-08T05:46:42.128Z,3150.00
2022-08-08T05:48:00.731Z,3133.12
2022-08-08T05:48:42.504Z,3150.00
2022-08-08T05:49:41.137Z,3127.50
2022-08-08T05:50:42.096Z,3138.75
2022-08-08T05:51:48.165Z,3166.88
2022-08-08T05:52:42.415Z,3161.25
2022-08-08T05:54:25.954Z,3144.38
2022-08-08T05:54:49.718Z,3065.62
2022-08-08T05:56:11.458Z,3054.38
2022-08-08T05:56:47.030Z,3093.75
2022-08-08T05:58:05.255Z,3150.00
2022-08-08T05:58:53.671Z,3121.88
2022-08-08T06:00:00.958Z,3071.25
2022-08-08T06:00:44.496Z,2986.88
2022-08-08T06:01:55.589Z,3015.00
2022-08-08T06:02:43.873Z,3093.75
2022-08-08T06:03:41.950Z,3127.50
2022-08-08T06:04:41.028Z,3088.12
2022-08-08T06:05:42.001Z,3133.12
2022-08-08T06:06:40.990Z,3285.00
2022-08-08T06:07:43.808Z,3121.88
2022-08-08T06:08:40.978Z,3031.88
2022-08-08T06:10:01.312Z,3110.62
2022-08-08T06:10:41.964Z,2992.50
2022-08-08T06:11:40.960Z,3026.25
2022-08-08T06:12:41.946Z,3144.38
2022-08-08T06:13:46.987Z,3178.12
2022-08-08T06:14:48.761Z,3183.75
2022-08-08T06:15:50.652Z,3138.75
2022-08-08T06:16:41.920Z,3110.62
2022-08-08T06:18:18.335Z,3183.75
2022-08-08T06:18:41.910Z,3144.38
2022-08-08T06:19:41.012Z,3121.88
2022-08-08T06:20:40.905Z,3150.00
2022-08-08T06:21:51.745Z,3166.88
2022-08-08T06:22:42.217Z,3228.75
2022-08-08T06:24:02.199Z,3262.50
2022-08-08T06:24:50.952Z,3240.00
2022-08-08T06:26:43.712Z,3200.62
2022-08-08T06:26:44.104Z,3172.50
2022-08-08T06:27:43.749Z,3228.75
2022-08-08T06:28:41.854Z,3189.38
2022-08-08T06:29:56.730Z,3234.38
2022-08-08T06:30:41.861Z,3172.50
2022-08-08T06:31:52.866Z,3172.50
2022-08-08T06:32:41.831Z,3116.25
2022-08-08T06:34:27.359Z,3155.62
2022-08-08T06:34:41.837Z,3195.00
2022-08-08T06:36:06.739Z,3178.12
2022-08-08T06:36:41.865Z,3155.62
2022-08-08T06:37:43.123Z,3161.25
2022-08-08T06:38:40.796Z,3144.38
2022-08-08T06:39:56.213Z,3133.12
2022-08-08T06:40:48.553Z,3183.75
2022-08-08T06:41:41.778Z,3183.75
2022-08-08T06:42:41.773Z,3211.88
2022-08-08T06:43:40.765Z,3211.88
2022-08-08T06:44:42.608Z,3166.88
2022-08-08T06:45:41.762Z,3127.50
2022-08-08T06:46:40.924Z,3138.75
2022-08-08T06:47:52.647Z,3116.25
2022-08-08T06:48:42.402Z,3065.62
2022-08-08T06:49:55.559Z,3150.00
2022-08-08T06:50:41.749Z,3251.25
2022-08-08T06:51:46.906Z,3234.38
2022-08-08T06:52:42.988Z,3256.88
2022-08-08T06:53:50.763Z,3256.88
2022-08-08T06:54:41.735Z,3223.12
2022-08-08T06:55:41.733Z,3228.75
2022-08-08T06:56:40.699Z,3228.75
2022-08-08T06:57:53.719Z,3273.75
2022-08-08T06:58:41.682Z,3268.12
2022-08-08T07:00:10.236Z,3262.50
2022-08-08T07:00:41.710Z,3313.12
2022-08-08T07:02:17.127Z,3313.12
2022-08-08T07:02:45.082Z,3189.38
2022-08-08T07:04:36.004Z,3262.50
2022-08-08T07:04:44.282Z,3397.50
2022-08-08T07:05:42.648Z,3436.88
2022-08-08T07:06:41.638Z,3431.25
2022-08-08T07:07:40.639Z,3414.38
2022-08-08T07:08:40.635Z,3391.88
2022-08-08T07:09:45.811Z,3386.25
2022-08-08T07:10:46.010Z,3403.12
2022-08-08T07:11:50.829Z,3391.88
2022-08-08T07:12:42.784Z,3358.12
2022-08-08T07:14:00.380Z,3296.25
2022-08-08T07:14:41.629Z,3251.25
2022-08-08T07:16:05.400Z,3335.62
2022-08-08T07:16:51.035Z,3465.00
2022-08-08T07:18:01.442Z,3526.88
2022-08-08T07:18:41.809Z,3515.62
2022-08-08T07:19:40.603Z,3521.25
2022-08-08T07:20:50.407Z,3498.75
2022-08-08T07:21:41.556Z,3481.88
2022-08-08T07:22:40.554Z,3465.00
2022-08-08T07:24:02.227Z,3487.50
2022-08-08T07:24:41.568Z,3498.75
2022-08-08T07:25:44.158Z,3470.62
2022-08-08T07:26:42.534Z,3487.50
2022-08-08T07:28:00.793Z,3543.75
2022-08-08T07:28:41.557Z,3600.00
2022-08-08T07:30:02.361Z,3611.25
2022-08-08T07:30:41.553Z,3605.62
2022-08-08T07:31:40.506Z,3588.75
2022-08-08T07:32:40.500Z,3571.88
2022-08-08T07:33:53.423Z,3588.75
2022-08-08T07:34:59.379Z,3611.25
2022-08-08T07:35:41.502Z,3628.12
2022-08-08T07:36:48.268Z,3628.12
2022-08-08T07:37:55.664Z,3605.62
2022-08-08T07:38:41.460Z,3650.62
2022-08-08T07:39:45.435Z,3678.75
2022-08-08T07:40:41.528Z,3588.75
2022-08-08T07:41:58.918Z,3330.00
2022-08-08T07:42:41.440Z,3223.12
2022-08-08T07:43:40.433Z,3442.50
2022-08-08T07:44:43.654Z,3594.38
2022-08-08T07:46:05.339Z,3701.25
2022-08-08T07:46:42.412Z,3729.38
2022-08-08T07:47:40.716Z,3718.12
2022-08-08T07:48:42.163Z,3690.00
2022-08-08T07:49:40.498Z,3695.62
2022-08-08T07:50:40.428Z,3701.25
2022-08-08T07:51:53.008Z,3656.25
2022-08-08T07:52:43.887Z,3616.88
2022-08-08T07:54:00.738Z,3611.25
2022-08-08T07:54:41.376Z,3628.12
2022-08-08T07:55:40.398Z,3751.88
2022-08-08T07:56:40.364Z,3735.00
2022-08-08T07:57:48.293Z,3751.88
2022-08-08T07:58:42.357Z,3780.00
2022-08-08T07:59:40.354Z,3751.88
2022-08-08T08:00:40.411Z,3740.62
2022-08-08T08:02:35.578Z,3695.62
2022-08-08T08:02:41.714Z,3695.62
2022-08-08T08:03:41.523Z,3645.00
2022-08-08T08:04:41.332Z,3583.12
2022-08-08T08:05:40.335Z,3583.12
2022-08-08T08:06:41.838Z,3701.25
2022-08-08T08:07:40.756Z,3695.62
2022-08-08T08:08:41.882Z,3706.88
2022-08-08T08:09:41.276Z,3802.50
2022-08-08T08:10:40.303Z,3853.12
2022-08-08T08:11:51.396Z,3920.62
2022-08-08T08:12:43.081Z,3943.12
2022-08-08T08:14:05.915Z,3819.38
2022-08-08T08:14:41.246Z,3740.62
2022-08-08T08:15:40.276Z,3746.25
2022-08-08T08:16:41.165Z,3774.38
2022-08-08T08:17:48.661Z,3729.38
2022-08-08T08:18:52.058Z,3639.38
2022-08-08T08:19:45.054Z,3600.00
2022-08-08T08:20:40.237Z,3526.88
2022-08-08T08:21:52.861Z,3521.25
2022-08-08T08:22:41.203Z,3397.50
2022-08-08T08:23:40.646Z,3178.12
2022-08-08T08:24:42.937Z,2587.50
2022-08-08T08:25:45.964Z,1974.38
2022-08-08T08:26:46.853Z,1816.88
2022-08-08T08:27:46.575Z,1811.25
2022-08-08T08:28:41.155Z,1867.50
2022-08-08T08:29:40.157Z,1856.25
2022-08-08T08:30:40.178Z,1839.38
2022-08-08T08:31:42.239Z,1828.12
2022-08-08T08:32:49.284Z,1783.12
2022-08-08T08:33:41.128Z,1732.50
2022-08-08T08:34:42.529Z,1710.00
2022-08-08T08:36:19.921Z,1670.62
2022-08-08T08:36:41.114Z,1642.50
2022-08-08T08:37:58.895Z,1620.00
2022-08-08T08:38:49.970Z,1597.50
2022-08-08T08:40:01.215Z,1563.75
2022-08-08T08:40:41.115Z,1524.38
2022-08-08T08:41:40.096Z,1513.12
2022-08-08T08:42:40.070Z,1518.75
2022-08-08T08:43:42.522Z,1501.88
2022-08-08T08:44:41.057Z,1473.75
2022-08-08T08:45:40.060Z,1462.50
2022-08-08T08:46:40.074Z,1456.88
2022-08-08T08:47:43.890Z,1440.00
2022-08-08T08:48:41.921Z,1417.50
2022-08-08T08:49:42.929Z,1406.25
2022-08-08T08:50:41.040Z,1417.50
2022-08-08T08:51:50.918Z,1434.38
2022-08-08T08:52:57.478Z,1428.75
2022-08-08T08:53:55.335Z,1361.25
2022-08-08T08:54:40.994Z,1310.62
2022-08-08T08:55:40.197Z,1299.38
2022-08-08T08:56:40.009Z,1350.00
2022-08-08T08:57:39.974Z,1383.75
2022-08-08T08:58:39.991Z,1406.25
2022-08-08T08:59:59.392Z,1428.75
2022-08-08T09:01:04.850Z,1451.25
2022-08-08T09:01:43.752Z,1468.12
2022-08-08T09:02:41.175Z,1490.62
2022-08-08T09:03:45.885Z,1490.62
2022-08-08T09:04:45.597Z,1462.50
2022-08-08T09:05:54.528Z,1434.38
2022-08-08T09:06:50.146Z,1395.00
2022-08-08T09:07:52.356Z,1361.25
2022-08-08T09:08:41.900Z,1350.00
2022-08-08T09:09:48.331Z,1338.75
2022-08-08T09:10:40.891Z,1321.88
2022-08-08T09:11:47.458Z,1321.88
2022-08-08T09:12:40.870Z,1333.12
2022-08-08T09:13:39.867Z,1355.62
2022-08-08T09:14:42.758Z,1383.75
2022-08-08T09:15:43.313Z,1445.62
2022-08-08T09:16:40.223Z,1513.12
2022-08-08T09:17:52.341Z,1569.38
2022-08-08T09:18:40.831Z,1642.50
2022-08-08T09:21:57.484Z,1873.12
2022-08-08T09:21:58.978Z,1743.75
2022-08-08T09:22:01.007Z,2013.75
2022-08-08T09:22:40.806Z,2126.25
2022-08-08T09:23:40.845Z,2160.00
2022-08-08T09:24:40.123Z,2199.38
2022-08-08T09:25:54.788Z,2160.00
2022-08-08T09:26:40.809Z,2013.75
2022-08-08T09:27:56.670Z,1912.50
2022-08-08T09:28:40.768Z,1828.12
2022-08-08T09:29:39.840Z,1732.50
2022-08-08T09:30:40.832Z,1631.25
2022-08-08T09:31:42.798Z,1507.50
2022-08-08T09:32:40.734Z,1355.62
2022-08-08T09:34:14.817Z,1220.62
2022-08-08T09:34:45.493Z,1029.38
2022-08-08T09:35:49.078Z,826.88
2022-08-08T09:36:40.731Z,691.88
2022-08-08T09:38:00.898Z,646.88
2022-08-08T09:38:52.392Z,630.00
2022-08-08T09:39:40.703Z,607.50
2022-08-08T09:40:47.762Z,585.00
2022-08-08T09:42:15.010Z,556.88
2022-08-08T09:42:44.424Z,534.38
2022-08-08T09:44:06.614Z,517.50
2022-08-08T09:44:40.795Z,506.25
2022-08-08T09:45:54.866Z,500.62
2022-08-08T09:46:40.668Z,489.38
2022-08-08T09:48:04.297Z,478.12
2022-08-08T09:48:42.905Z,466.88
2022-08-08T09:49:42.678Z,455.62
2022-08-08T09:50:44.120Z,450.00
2022-08-08T09:52:01.782Z,438.75
2022-08-08T09:52:59.332Z,427.50
2022-08-08T09:53:59.383Z,421.88
2022-08-08T09:54:40.872Z,416.25
2022-08-08T09:56:03.370Z,416.25
2022-08-08T09:56:41.254Z,416.25
2022-08-08T09:57:46.154Z,410.62
2022-08-08T09:58:41.750Z,410.62
2022-08-08T10:00:01.765Z,410.62
2022-08-08T10:00:56.843Z,410.62
2022-08-08T10:02:01.983Z,410.62
2022-08-08T10:02:40.525Z,405.00
2022-08-08T10:03:40.524Z,405.00
2022-08-08T10:04:42.359Z,405.00
2022-08-08T10:05:40.544Z,405.00
2022-08-08T10:06:39.525Z,405.00
2022-08-08T10:07:43.438Z,405.00
2022-08-08T10:08:39.487Z,399.38
2022-08-08T10:10:00.965Z,399.38
2022-08-08T10:10:41.619Z,399.38
2022-08-08T10:12:27.444Z,399.38
2022-08-08T10:12:54.136Z,399.38
2022-08-08T10:13:42.939Z,393.75
2022-08-08T10:14:39.580Z,393.75
2022-08-08T10:15:39.518Z,393.75
2022-08-08T10:16:39.435Z,393.75
2022-08-08T10:18:06.627Z,393.75
2022-08-08T10:18:40.418Z,393.75
2022-08-08T10:19:57.485Z,393.75
2022-08-08T10:20:44.546Z,388.12
2022-08-08T10:21:42.240Z,393.75
2022-08-08T10:22:40.451Z,388.12
2022-08-08T10:23:42.097Z,388.12
2022-08-08T10:24:39.355Z,388.12
2022-08-08T10:25:54.276Z,388.12
2022-08-08T10:26:56.819Z,388.12
2022-08-08T10:27:40.364Z,388.12
2022-08-08T10:28:39.334Z,388.12
2022-08-08T10:29:57.006Z,382.50
2022-08-08T10:30:57.044Z,382.50
2022-08-08T10:31:46.851Z,382.50
2022-08-08T10:32:48.333Z,382.50
2022-08-08T10:34:18.667Z,376.88
2022-08-08T10:34:40.296Z,382.50
2022-08-08T10:36:19.409Z,382.50
2022-08-08T10:36:40.271Z,382.50
2022-08-08T10:37:39.289Z,382.50
2022-08-08T10:38:40.478Z,382.50
2022-08-08T10:39:43.346Z,376.88
2022-08-08T10:40:40.245Z,376.88
2022-08-08T10:41:58.602Z,376.88
2022-08-08T10:42:41.251Z,376.88
2022-08-08T10:43:39.218Z,376.88
2022-08-08T10:44:39.214Z,376.88
2022-08-08T10:45:41.307Z,376.88
2022-08-08T10:46:39.194Z,376.88
2022-08-08T10:47:43.068Z,376.88
2022-08-08T10:48:56.670Z,376.88
2022-08-08T10:50:02.334Z,376.88
2022-08-08T10:50:40.175Z,371.25
2022-08-08T10:51:47.032Z,371.25
2022-08-08T10:52:40.175Z,371.25
2022-08-08T10:53:56.525Z,371.25
2022-08-08T10:54:41.505Z,371.25
2022-08-08T10:55:46.399Z,371.25
2022-08-08T10:56:43.263Z,371.25
2022-08-08T10:57:47.966Z,371.25
2022-08-08T10:58:54.603Z,371.25
2022-08-08T10:59:40.883Z,371.25
2022-08-08T11:00:48.642Z,371.25
2022-08-08T11:01:41.122Z,371.25
2022-08-08T11:02:39.104Z,371.25
2022-08-08T11:04:00.505Z,365.62
2022-08-08T11:04:40.062Z,365.62
2022-08-08T11:05:39.253Z,365.62
2022-08-08T11:06:42.005Z,365.62
2022-08-08T11:08:38.865Z,365.62
2022-08-08T11:08:42.943Z,365.62
2022-08-08T11:09:41.017Z,365.62
2022-08-08T11:10:39.010Z,365.62
2022-08-08T11:12:05.608Z,365.62
2022-08-08T11:12:40.017Z,365.62
2022-08-08T11:13:39.986Z,365.62
2022-08-08T11:59:02.742Z,354.38
2022-08-08T12:00:06.222Z,354.38
2022-08-08T12:01:03.858Z,354.38
2022-08-08T12:02:28.592Z,354.38
2022-08-08T12:03:05.930Z,354.38
2022-08-08T12:04:03.979Z,354.38
2022-08-08T12:05:03.820Z,354.38
2022-08-08T12:06:03.811Z,360.00
2022-08-08T12:07:04.432Z,360.00
2022-08-08T12:08:04.348Z,360.00
2022-08-08T12:09:03.794Z,360.00
2022-08-08T12:10:08.661Z,360.00
2022-08-08T12:11:05.767Z,360.00
2022-08-08T12:12:03.863Z,354.38
2022-08-08T12:13:03.862Z,354.38
2022-08-08T12:14:04.541Z,354.38
2022-08-08T12:15:05.066Z,354.38
2022-08-08T12:16:03.825Z,360.00
2022-08-08T12:17:03.867Z,360.00
2022-08-08T12:18:03.831Z,354.38
2022-08-08T12:19:05.908Z,354.38
2022-08-08T12:20:03.873Z,354.38
2022-08-08T12:21:03.775Z,354.38
2022-08-08T12:22:05.325Z,354.38
2022-08-08T12:23:03.717Z,354.38
2022-08-08T12:24:03.674Z,354.38
2022-08-08T12:25:03.676Z,354.38
2022-08-08T12:26:03.662Z,354.38
2022-08-08T12:27:03.654Z,354.38
2022-08-08T12:28:04.668Z,354.38
2022-08-08T12:29:03.638Z,354.38
2022-08-08T12:30:04.489Z,354.38
2022-08-08T12:31:03.620Z,354.38
2022-08-08T12:32:03.621Z,354.38
2022-08-08T12:33:08.761Z,354.38
2022-08-08T12:34:03.601Z,354.38
2022-08-08T12:35:13.732Z,354.38
2022-08-08T12:36:04.587Z,354.38
2022-08-08T12:37:03.586Z,354.38
2022-08-08T12:38:03.622Z,354.38
2022-08-08T12:39:06.605Z,354.38
2022-08-08T12:40:03.563Z,354.38
2022-08-08T12:41:05.744Z,354.38
2022-08-08T12:42:04.854Z,348.75
2022-08-08T12:43:03.888Z,348.75
2022-08-08T12:44:03.545Z,354.38
2022-08-08T12:45:03.521Z,354.38
2022-08-08T12:46:04.522Z,354.38
2022-08-08T12:47:03.503Z,354.38
2022-08-08T12:48:10.373Z,354.38
2022-08-08T12:50:05.489Z,354.38
2022-08-08T12:51:03.538Z,354.38
2022-08-08T12:52:03.469Z,354.38
2022-08-08T12:53:03.498Z,354.38
2022-08-08T12:54:04.539Z,348.75
2022-08-08T12:55:04.449Z,354.38
2022-08-08T12:56:18.422Z,354.38
2022-08-08T12:57:05.432Z,354.38
2022-08-08T12:58:03.459Z,348.75
2022-08-08T12:59:03.419Z,354.38
2022-08-08T13:00:12.217Z,354.38
2022-08-08T13:01:06.154Z,354.38
2022-08-08T13:02:04.538Z,354.38
2022-08-08T13:03:03.419Z,348.75
2022-08-08T13:04:03.404Z,348.75
2022-08-08T13:05:06.008Z,348.75
2022-08-08T13:06:06.614Z,348.75
2022-08-08T13:07:04.347Z,348.75
2022-08-08T13:08:05.290Z,348.75
2022-08-08T13:09:04.364Z,348.75
2022-08-08T13:10:05.753Z,348.75
2022-08-08T13:11:04.323Z,348.75
2022-08-08T13:12:27.739Z,348.75
2022-08-08T13:13:06.162Z,348.75
2022-08-08T13:14:03.326Z,348.75
2022-08-08T13:15:03.344Z,348.75
2022-08-08T13:16:03.286Z,348.75
2022-08-08T13:17:03.280Z,348.75
2022-08-08T13:18:11.180Z,348.75